createdAt,value
2018-05-01T00:00:10.050Z,10.60
2018-05-01T00:02:39.140Z,9.43
2018-05-01T00:05:08.229Z,9.50
2018-05-01T00:07:37.333Z,9.07
2018-05-01T00:10:06.449Z,10.70
2018-05-01T00:12:35.548Z,9.13
2018-05-01T00:15:04.657Z,10.53
2018-05-01T00:17:33.859Z,9.70
2018-05-01T00:20:03.017Z,9.13
2018-05-01T00:22:32.057Z,9.63
2018-05-01T00:25:01.151Z,9.77
2018-05-01T00:27:30.328Z,8.87
2018-05-01T00:29:59.403Z,9.70
2018-05-01T00:32:28.614Z,7.53
2018-05-01T00:34:57.793Z,7.80
2018-05-01T00:37:26.903Z,8.17
2018-05-01T00:39:56.123Z,12.60
2018-05-01T00:42:25.278Z,8.40
2018-05-01T00:44:54.412Z,6.50
2018-05-01T00:47:23.677Z,7.30
2018-05-01T00:49:52.874Z,6.73
2018-05-01T00:52:28.001Z,7.17
2018-05-01T00:54:57.097Z,6.30
2018-05-01T00:57:26.187Z,6.70
2018-05-01T00:59:55.391Z,5.90
2018-05-01T01:02:24.585Z,5.80
2018-05-01T01:04:53.789Z,7.00
2018-05-01T01:07:22.882Z,9.20
2018-05-01T01:09:52.281Z,6.60
2018-05-01T01:12:21.374Z,6.27
2018-05-01T01:14:50.463Z,6.13
2018-05-01T01:17:19.659Z,5.47
2018-05-01T01:19:48.804Z,7.47
2018-05-01T01:22:17.915Z,5.10
2018-05-01T01:24:47.051Z,6.20
2018-05-01T01:27:16.240Z,6.53
2018-05-01T01:29:45.321Z,6.17
2018-05-01T01:32:14.537Z,10.40
2018-05-01T01:34:43.638Z,5.83
2018-05-01T01:37:12.487Z,4.60
2018-05-01T01:39:41.429Z,5.30
2018-05-01T01:42:10.288Z,6.03
2018-05-01T01:44:39.145Z,6.63
2018-05-01T01:47:07.996Z,5.20
2018-05-01T01:49:36.853Z,4.87
2018-05-01T01:52:05.774Z,5.00
2018-05-01T01:54:34.958Z,5.50
2018-05-01T01:57:03.832Z,5.27
2018-05-01T01:59:32.694Z,4.77
2018-05-01T02:02:01.633Z,6.13
2018-05-01T02:04:30.490Z,6.03
2018-05-01T02:06:59.391Z,7.10
2018-05-01T02:09:28.244Z,6.70
2018-05-01T02:11:57.107Z,6.03
2018-05-01T02:14:25.961Z,6.23
2018-05-01T02:16:54.838Z,5.73
2018-05-01T02:19:23.737Z,5.73
2018-05-01T02:21:53.853Z,7.00
2018-05-01T02:24:22.745Z,6.30
2018-05-01T02:26:51.598Z,6.63
2018-05-01T02:29:20.816Z,6.90
2018-05-01T02:31:49.729Z,6.47
2018-05-01T02:34:18.665Z,7.47
2018-05-01T02:36:47.529Z,7.17
2018-05-01T02:39:17.505Z,7.73
2018-05-01T02:41:46.413Z,7.03
2018-05-01T02:44:15.317Z,7.50
2018-05-01T02:46:44.177Z,9.13
2018-05-01T02:49:13.071Z,8.97
2018-05-01T02:51:42.046Z,8.10
2018-05-01T02:54:10.938Z,8.33
2018-05-01T02:56:39.785Z,8.90
2018-05-01T02:59:08.731Z,9.27
2018-05-01T03:01:37.598Z,8.73
2018-05-01T03:04:06.499Z,7.90
2018-05-01T03:06:35.359Z,8.53
2018-05-01T03:09:04.226Z,9.23
2018-05-01T03:11:33.086Z,9.07
2018-05-01T03:14:01.966Z,8.63
2018-05-01T03:16:30.833Z,8.53
2018-05-01T03:18:59.721Z,9.83
2018-05-01T03:21:28.586Z,9.37
2018-05-01T03:23:57.442Z,11.70
2018-05-01T03:26:26.399Z,10.03
2018-05-01T03:28:55.289Z,10.00
2018-05-01T03:31:24.173Z,9.40
2018-05-01T03:33:53.018Z,9.27
2018-05-01T03:36:21.885Z,10.43
2018-05-01T03:38:50.851Z,9.57
2018-05-01T03:41:19.728Z,8.83
2018-05-01T03:43:48.585Z,10.50
2018-05-01T03:46:17.515Z,8.33
2018-05-01T03:48:46.366Z,9.50
2018-05-01T03:51:15.281Z,11.10
2018-05-01T03:53:44.134Z,9.57
2018-05-01T03:56:13.038Z,9.77
2018-05-01T03:58:41.865Z,11.10
2018-05-01T04:01:10.732Z,8.53
2018-05-01T04:03:39.579Z,9.57
2018-05-01T04:06:08.510Z,10.17
2018-05-01T04:08:37.386Z,10.27
2018-05-01T04:11:06.292Z,8.90
2018-05-01T04:13:35.156Z,9.33
2018-05-01T04:16:04.037Z,11.27
2018-05-01T04:18:32.874Z,9.70
2018-05-01T04:21:01.725Z,11.03
2018-05-01T04:23:30.628Z,9.67
2018-05-01T04:25:59.487Z,16.20
2018-05-01T04:28:33.435Z,9.80
2018-05-01T04:31:02.309Z,12.50
2018-05-01T04:33:31.208Z,11.20
2018-05-01T04:36:00.105Z,12.47
2018-05-01T04:38:28.952Z,16.23
2018-05-01T04:40:57.869Z,15.90
2018-05-01T04:43:26.737Z,13.13
2018-05-01T04:45:55.649Z,19.83
2018-05-01T04:48:24.545Z,14.50
2018-05-01T04:50:53.426Z,18.90
2018-05-01T04:53:22.309Z,15.70
2018-05-01T04:55:51.203Z,21.70
2018-05-01T04:58:20.077Z,25.73
2018-05-01T05:00:48.949Z,18.93
2018-05-01T05:03:17.869Z,20.37
2018-05-01T05:05:46.752Z,23.50
2018-05-01T05:08:15.641Z,19.03
2018-05-01T05:10:44.528Z,24.93
2018-05-01T05:13:13.379Z,17.50
2018-05-01T05:15:43.209Z,24.63
2018-05-01T05:18:12.129Z,24.70
2018-05-01T05:20:40.976Z,31.30
2018-05-01T05:23:09.900Z,26.30
2018-05-01T05:25:38.769Z,27.30
2018-05-01T05:28:07.638Z,27.83
2018-05-01T05:30:36.595Z,32.60
2018-05-01T05:33:05.505Z,25.90
2018-05-01T05:35:34.357Z,29.43
2018-05-01T05:38:03.217Z,26.20
2018-05-01T05:40:32.068Z,36.20
2018-05-01T05:43:00.939Z,24.43
2018-05-01T05:45:29.797Z,40.43
2018-05-01T05:47:58.701Z,28.40
2018-05-01T05:50:27.550Z,38.53
2018-05-01T05:52:56.417Z,29.87
2018-05-01T05:55:25.277Z,32.23
2018-05-01T05:57:55.109Z,30.27
2018-05-01T06:00:23.972Z,24.00
2018-05-01T06:02:52.821Z,24.00
2018-05-01T06:05:21.837Z,30.23
2018-05-01T06:07:50.797Z,26.20
2018-05-01T06:10:19.613Z,31.27
2018-05-01T06:12:48.513Z,25.17
2018-05-01T06:15:17.382Z,36.93
2018-05-01T06:17:46.277Z,26.43
2018-05-01T06:20:15.131Z,30.00
2018-05-01T06:22:43.993Z,24.47
2018-05-01T06:25:12.948Z,23.33
2018-05-01T06:27:41.864Z,25.43
2018-05-01T06:30:10.729Z,26.80
2018-05-01T06:32:39.619Z,27.63
2018-05-01T06:35:08.508Z,29.67
2018-05-01T06:37:37.348Z,30.57
2018-05-01T06:40:06.277Z,36.60
2018-05-01T06:42:35.145Z,23.73
2018-05-01T06:45:04.024Z,30.80
2018-05-01T06:47:32.949Z,28.03
2018-05-01T06:50:01.833Z,35.93
2018-05-01T06:52:30.737Z,32.17
2018-05-01T06:54:59.637Z,25.10
2018-05-01T06:57:28.500Z,23.73
2018-05-01T06:59:57.423Z,33.20
2018-05-01T07:02:26.285Z,21.57
2018-05-01T07:04:55.161Z,24.50
2018-05-01T07:07:24.042Z,23.00
2018-05-01T07:09:53.860Z,23.23
2018-05-01T07:12:22.771Z,26.10
2018-05-01T07:14:51.693Z,36.57
2018-05-01T07:17:20.546Z,22.90
2018-05-01T07:19:49.433Z,24.83
2018-05-01T07:22:18.308Z,24.77
2018-05-01T07:24:47.197Z,25.83
2018-05-01T07:27:16.405Z,22.57
2018-05-01T07:29:45.296Z,25.77
2018-05-01T07:32:15.130Z,22.23
2018-05-01T07:34:44.047Z,26.03
2018-05-01T07:37:12.913Z,20.60
2018-05-01T07:39:41.772Z,18.60
2018-05-01T07:42:10.716Z,24.03
2018-05-01T07:44:39.683Z,31.27
2018-05-01T07:47:08.547Z,17.13
2018-05-01T07:49:37.421Z,23.93
2018-05-01T07:52:06.286Z,18.80
2018-05-01T07:54:35.162Z,29.90
2018-05-01T07:57:04.029Z,27.43
2018-05-01T07:59:32.993Z,26.47
2018-05-01T08:02:01.842Z,29.20
2018-05-01T08:04:30.774Z,19.27
2018-05-01T08:06:59.701Z,28.20
2018-05-01T08:09:28.577Z,23.33
2018-05-01T08:11:57.441Z,16.83
2018-05-01T08:14:26.309Z,15.83
2018-05-01T08:16:55.201Z,14.80
2018-05-01T08:19:24.090Z,19.53
2018-05-01T08:21:53.024Z,18.80
2018-05-01T08:24:21.887Z,20.43
2018-05-01T08:26:50.748Z,17.20
2018-05-01T08:29:19.664Z,21.53
2018-05-01T08:31:48.533Z,23.23
2018-05-01T08:34:17.472Z,15.87
2018-05-01T08:36:46.308Z,21.87
2018-05-01T08:39:15.162Z,16.50
2018-05-01T08:41:44.053Z,15.80
2018-05-01T08:44:13.003Z,15.40
2018-05-01T08:46:41.869Z,20.97
2018-05-01T08:49:10.777Z,17.27
2018-05-01T08:51:39.623Z,19.23
2018-05-01T08:54:08.504Z,11.20
2018-05-01T08:56:37.431Z,12.33
2018-05-01T08:59:06.306Z,13.60
2018-05-01T09:01:35.197Z,13.07
2018-05-01T09:04:04.069Z,20.53
2018-05-01T09:06:33.007Z,17.20
2018-05-01T09:09:01.897Z,18.63
2018-05-01T09:11:30.785Z,16.97
2018-05-01T09:13:59.629Z,14.90
2018-05-01T09:16:28.496Z,9.93
2018-05-01T09:18:57.345Z,11.73
2018-05-01T09:21:26.224Z,19.67
2018-05-01T09:23:55.161Z,16.33
2018-05-01T09:26:23.978Z,11.57
2018-05-01T09:28:52.872Z,10.10
2018-05-01T09:31:25.302Z,11.27
2018-05-01T09:33:54.179Z,17.70
2018-05-01T09:36:23.048Z,11.93
2018-05-01T09:38:51.910Z,19.53
2018-05-01T09:41:20.810Z,12.10
2018-05-01T09:43:49.685Z,12.77
2018-05-01T09:46:18.541Z,12.37
2018-05-01T09:48:47.398Z,12.33
2018-05-01T09:51:16.362Z,12.63
2018-05-01T09:53:45.549Z,12.07
2018-05-01T09:56:14.753Z,12.83
2018-05-01T09:58:43.867Z,15.90
2018-05-01T10:01:12.973Z,12.17
2018-05-01T10:03:42.069Z,9.00
2018-05-01T10:06:11.227Z,13.70
2018-05-01T10:08:40.438Z,13.13
2018-05-01T10:11:09.634Z,26.27
2018-05-01T10:13:38.858Z,17.30
2018-05-01T10:16:07.976Z,15.17
2018-05-01T10:18:37.110Z,16.30
2018-05-01T10:21:06.213Z,15.63
2018-05-01T10:23:35.329Z,19.30
2018-05-01T10:26:04.437Z,15.90
2018-05-01T10:28:33.553Z,12.37
2018-05-01T10:31:04.640Z,21.20
2018-05-01T10:33:33.773Z,28.27
2018-05-01T10:36:02.937Z,12.97
2018-05-01T10:38:32.039Z,11.93
2018-05-01T10:41:01.213Z,17.40
2018-05-01T10:43:30.288Z,9.17
2018-05-01T10:45:59.397Z,17.40
2018-05-01T10:48:28.526Z,14.10
2018-05-01T10:50:57.854Z,13.73
2018-05-01T10:53:26.970Z,11.87
2018-05-01T10:55:56.180Z,14.00
2018-05-01T10:58:25.379Z,13.83
2018-05-01T11:00:54.565Z,14.53
2018-05-01T11:03:23.773Z,15.00
2018-05-01T11:05:52.958Z,11.80
2018-05-01T11:08:22.155Z,10.07
2018-05-01T11:10:51.245Z,10.13
2018-05-01T11:13:20.360Z,9.40
2018-05-01T11:15:49.559Z,10.00
2018-05-01T11:18:18.760Z,9.57
2018-05-01T11:20:48.053Z,12.80
2018-05-01T11:23:17.153Z,15.13
2018-05-01T11:25:46.338Z,10.17
2018-05-01T11:28:15.525Z,12.70
2018-05-01T11:30:44.734Z,12.97
2018-05-01T11:33:13.936Z,8.77
2018-05-01T11:35:43.035Z,10.47
2018-05-01T11:38:12.145Z,16.80
2018-05-01T11:40:42.160Z,11.13
2018-05-01T11:43:11.314Z,7.20
2018-05-01T11:45:40.517Z,8.10
2018-05-01T11:48:09.640Z,11.30
2018-05-01T11:50:38.817Z,12.93
2018-05-01T11:53:07.996Z,12.07
2018-05-01T11:55:37.079Z,6.37
2018-05-01T11:58:06.283Z,8.73
2018-05-01T12:00:35.380Z,7.13
2018-05-01T12:03:04.477Z,9.67
2018-05-01T12:05:33.671Z,6.73
2018-05-01T12:08:02.883Z,9.23
2018-05-01T12:10:32.089Z,11.00
2018-05-01T12:13:01.270Z,9.90
2018-05-01T12:15:30.466Z,6.50
2018-05-01T12:17:59.665Z,9.13
2018-05-01T12:20:28.853Z,10.63
2018-05-01T12:22:57.949Z,7.00
2018-05-01T12:25:27.227Z,9.57
2018-05-01T12:27:56.312Z,5.50
2018-05-01T12:30:25.421Z,11.07
2018-05-01T12:32:54.525Z,15.17
2018-05-01T12:35:23.652Z,12.27
2018-05-01T12:37:52.829Z,10.53
2018-05-01T12:40:22.913Z,8.63
2018-05-01T12:42:52.026Z,8.30
2018-05-01T12:45:21.229Z,9.10
2018-05-01T12:47:50.380Z,11.90
2018-05-01T12:50:19.514Z,9.00
2018-05-01T12:52:48.593Z,7.43
2018-05-01T12:55:17.810Z,8.73
2018-05-01T12:57:46.915Z,9.53
2018-05-01T13:00:16.001Z,12.60
2018-05-01T13:02:45.107Z,8.03
2018-05-01T13:05:14.328Z,7.03
2018-05-01T13:07:43.585Z,7.30
2018-05-01T13:10:14.068Z,8.07
2018-05-01T13:12:43.295Z,8.40
2018-05-01T13:15:12.497Z,6.40
2018-05-01T13:17:41.589Z,9.57
2018-05-01T13:20:10.707Z,8.00
2018-05-01T13:22:39.781Z,9.83
2018-05-01T13:25:08.894Z,8.50
2018-05-01T13:27:37.976Z,9.00
2018-05-01T13:30:07.207Z,8.63
2018-05-01T13:32:36.408Z,9.53
2018-05-01T13:35:05.481Z,6.70
2018-05-01T13:37:34.576Z,11.37
2018-05-01T13:40:03.730Z,9.33
2018-05-01T13:42:32.839Z,6.77
2018-05-01T13:45:02.035Z,7.07
2018-05-01T13:47:31.166Z,13.43
2018-05-01T13:50:00.277Z,6.90
2018-05-01T13:52:29.396Z,6.40
2018-05-01T13:54:58.494Z,14.77
2018-05-01T13:57:28.538Z,11.93
2018-05-01T13:59:57.619Z,8.10
2018-05-01T14:02:26.726Z,9.30
2018-05-01T14:04:56.033Z,7.93
2018-05-01T14:07:25.153Z,7.33
2018-05-01T14:09:54.256Z,7.70
2018-05-01T14:12:23.406Z,7.70
2018-05-01T14:14:52.495Z,10.47
2018-05-01T14:17:21.601Z,10.10
2018-05-01T14:19:50.694Z,7.00
2018-05-01T14:22:19.881Z,7.10
2018-05-01T14:24:48.985Z,10.50
2018-05-01T14:27:18.173Z,8.07
2018-05-01T14:29:47.321Z,14.43
2018-05-01T14:32:16.401Z,8.57
2018-05-01T14:34:45.548Z,5.77
2018-05-01T14:37:15.664Z,5.73
2018-05-01T14:39:44.768Z,13.67
2018-05-01T14:42:13.861Z,5.03
2018-05-01T14:44:43.256Z,6.03
2018-05-01T14:47:12.358Z,6.13
2018-05-01T14:49:41.553Z,10.50
2018-05-01T14:52:10.743Z,3.87
2018-05-01T14:54:39.837Z,11.63
2018-05-01T14:57:08.925Z,6.97
2018-05-01T14:59:38.032Z,6.37
2018-05-01T15:02:08.119Z,3.53
2018-05-01T15:04:37.206Z,7.70
2018-05-01T15:07:07.261Z,9.67
2018-05-01T15:09:36.486Z,8.20
2018-05-01T15:12:05.669Z,4.60
2018-05-01T15:14:35.771Z,7.20
2018-05-01T15:17:04.854Z,5.37
2018-05-01T15:19:33.949Z,8.50
2018-05-01T15:22:03.059Z,8.83
2018-05-01T15:24:32.157Z,4.17
2018-05-01T15:27:01.273Z,5.80
2018-05-01T15:29:32.337Z,5.33
2018-05-01T15:32:01.502Z,7.07
2018-05-01T15:34:30.586Z,4.90
2018-05-01T15:36:59.675Z,9.47
2018-05-01T15:39:28.769Z,4.77
2018-05-01T15:41:57.953Z,4.57
2018-05-01T15:44:27.243Z,7.13
2018-05-01T15:46:56.319Z,5.87
2018-05-01T15:49:25.406Z,5.00
2018-05-01T15:51:58.725Z,6.70
2018-05-01T15:54:27.836Z,5.70
2018-05-01T15:56:57.013Z,6.30
2018-05-01T15:59:26.109Z,7.23
2018-05-01T16:01:55.332Z,3.67
2018-05-01T16:04:24.397Z,8.43
2018-05-01T16:06:54.492Z,4.27
2018-05-01T16:09:23.616Z,5.67
2018-05-01T16:11:52.715Z,6.73
2018-05-01T16:14:21.937Z,4.87
2018-05-01T16:16:50.930Z,4.93
2018-05-01T16:19:20.033Z,6.03
2018-05-01T16:21:49.132Z,6.93
2018-05-01T16:24:18.226Z,5.30
2018-05-01T16:26:47.488Z,6.00
2018-05-01T16:29:16.674Z,8.37
2018-05-01T16:31:45.866Z,9.23
2018-05-01T16:34:15.060Z,4.43
2018-05-01T16:36:47.725Z,3.90
2018-05-01T16:39:17.104Z,4.10
2018-05-01T16:41:46.189Z,5.73
2018-05-01T16:44:15.291Z,4.53
2018-05-01T16:46:44.430Z,4.33
2018-05-01T16:49:18.509Z,6.53
2018-05-01T16:51:47.620Z,7.27
2018-05-01T16:54:17.746Z,7.27
2018-05-01T16:56:46.885Z,3.47
2018-05-01T16:59:15.958Z,11.73
2018-05-01T17:01:45.137Z,5.70
2018-05-01T17:04:14.326Z,7.30
2018-05-01T17:06:43.420Z,9.23
2018-05-01T17:09:12.534Z,6.40
2018-05-01T17:11:41.731Z,6.70
2018-05-01T17:14:10.902Z,6.50
2018-05-01T17:16:40.113Z,5.77
2018-05-01T17:19:09.404Z,5.40
2018-05-01T17:21:38.572Z,3.40
2018-05-01T17:24:07.660Z,5.50
2018-05-01T17:26:36.796Z,5.80
2018-05-01T17:29:06.042Z,5.40
2018-05-01T17:31:35.073Z,3.47
2018-05-01T17:34:04.277Z,9.90
2018-05-01T17:36:33.409Z,6.07
2018-05-01T17:39:03.462Z,6.50
2018-05-01T17:41:32.681Z,3.60
2018-05-01T17:44:03.711Z,7.17
2018-05-01T17:46:33.005Z,9.30
2018-05-01T17:49:02.129Z,7.40
2018-05-01T17:51:31.231Z,12.97
2018-05-01T17:54:00.328Z,4.20
2018-05-01T17:56:29.494Z,4.73
2018-05-01T17:58:58.701Z,6.73
2018-05-01T18:01:28.806Z,4.07
2018-05-01T18:03:59.831Z,6.70
2018-05-01T18:06:29.996Z,6.40
2018-05-01T18:09:00.237Z,10.10
2018-05-01T18:11:29.418Z,4.97
2018-05-01T18:13:58.563Z,7.10
2018-05-01T18:16:31.265Z,3.80
2018-05-01T18:19:00.386Z,3.40
2018-05-01T18:21:29.566Z,5.10
2018-05-01T18:23:58.785Z,3.50
2018-05-01T18:26:27.858Z,3.80
2018-05-01T18:28:57.050Z,6.47
2018-05-01T18:31:26.236Z,5.00
2018-05-01T18:33:55.324Z,6.63
2018-05-01T18:36:24.438Z,18.73
2018-05-01T18:38:53.574Z,8.03
2018-05-01T18:41:22.698Z,7.50
2018-05-01T18:43:51.857Z,37.67
2018-05-01T18:46:20.961Z,16.70
2018-05-01T18:48:50.068Z,6.03
2018-05-01T18:51:19.189Z,10.53
2018-05-01T18:53:49.312Z,32.90
2018-05-01T18:56:18.590Z,10.20
2018-05-01T18:58:47.890Z,14.13
2018-05-01T19:01:17.055Z,6.20
2018-05-01T19:03:46.162Z,12.13
2018-05-01T19:06:15.750Z,6.17
2018-05-01T19:08:44.860Z,7.70
2018-05-01T19:11:13.983Z,16.27
2018-05-01T19:13:43.098Z,6.17
2018-05-01T19:16:12.237Z,13.83
2018-05-01T19:18:41.382Z,17.37
2018-05-01T19:21:10.541Z,8.00
2018-05-01T19:23:39.621Z,7.57
2018-05-01T19:26:08.958Z,5.60
2018-05-01T19:28:38.154Z,7.33
2018-05-01T19:31:07.243Z,4.20
2018-05-01T19:33:36.449Z,9.23
2018-05-01T19:36:06.631Z,9.50
2018-05-01T19:38:35.809Z,8.63
2018-05-01T19:41:07.897Z,7.23
2018-05-01T19:43:37.972Z,5.43
2018-05-01T19:46:07.132Z,11.33
2018-05-01T19:48:36.335Z,6.70
2018-05-01T19:51:05.437Z,9.73
2018-05-01T19:53:37.814Z,7.47
2018-05-01T19:56:08.691Z,6.50
2018-05-01T19:58:37.791Z,6.80
2018-05-01T20:01:08.906Z,4.67
2018-05-01T20:03:38.885Z,9.47
2018-05-01T20:06:08.995Z,13.40
2018-05-01T20:08:38.219Z,14.30
2018-05-01T20:11:07.290Z,11.97
2018-05-01T20:13:36.493Z,6.43
2018-05-01T20:16:05.588Z,8.00
2018-05-01T20:18:34.793Z,28.43
2018-05-01T20:21:03.985Z,7.83
2018-05-01T20:23:33.200Z,9.00
2018-05-01T20:26:02.311Z,11.30
2018-05-01T20:28:31.453Z,11.43
2018-05-01T20:31:01.590Z,11.80
2018-05-01T20:33:30.739Z,6.70
2018-05-01T20:35:59.860Z,10.10
2018-05-01T20:38:28.986Z,11.40
2018-05-01T20:40:58.088Z,11.80
2018-05-01T20:43:27.214Z,7.47
2018-05-01T20:45:56.377Z,12.33
2018-05-01T20:48:25.548Z,6.20
2018-05-01T20:50:54.736Z,10.10
2018-05-01T20:53:24.760Z,7.60
2018-05-01T20:55:53.860Z,8.33
2018-05-01T20:58:22.954Z,7.43
2018-05-01T21:00:52.076Z,11.50
2018-05-01T21:03:21.214Z,7.10
2018-05-01T21:05:50.328Z,6.07
2018-05-01T21:08:19.453Z,5.97
2018-05-01T21:10:48.642Z,8.37
2018-05-01T21:13:18.762Z,19.83
2018-05-01T21:15:47.840Z,6.33
2018-05-01T21:18:17.078Z,11.80
2018-05-01T21:20:46.209Z,9.80
2018-05-01T21:23:15.321Z,9.93
2018-05-01T21:25:44.414Z,7.30
2018-05-01T21:28:13.514Z,7.37
2018-05-01T21:30:42.590Z,7.47
2018-05-01T21:33:11.706Z,7.47
2018-05-01T21:35:40.883Z,11.53
2018-05-01T21:38:10.092Z,14.50
2018-05-01T21:40:39.193Z,6.80
2018-05-01T21:43:08.300Z,5.80
2018-05-01T21:45:37.462Z,7.40
2018-05-01T21:48:06.887Z,6.23
2018-05-01T21:50:36.068Z,7.63
2018-05-01T21:53:05.185Z,7.73
2018-05-01T21:55:34.357Z,6.13
2018-05-01T21:58:03.455Z,5.30
2018-05-01T22:00:32.544Z,10.30
2018-05-01T22:03:01.758Z,5.60
2018-05-01T22:05:30.924Z,5.83
2018-05-01T22:08:00.117Z,6.10
2018-05-01T22:10:29.318Z,6.93
2018-05-01T22:12:58.412Z,5.70
2018-05-01T22:15:27.609Z,7.90
2018-05-01T22:17:56.720Z,12.23
2018-05-01T22:20:25.905Z,8.33
2018-05-01T22:22:55.312Z,13.33
2018-05-01T22:25:24.393Z,8.50
2018-05-01T22:27:53.580Z,7.57
2018-05-01T22:30:22.685Z,7.43
2018-05-01T22:32:51.793Z,9.90
2018-05-01T22:35:20.921Z,10.30
2018-05-01T22:37:50.021Z,9.90
2018-05-01T22:40:20.049Z,7.93
2018-05-01T22:42:49.166Z,8.73
2018-05-01T22:45:18.266Z,10.43
2018-05-01T22:47:47.361Z,9.27
2018-05-01T22:50:16.459Z,11.80
2018-05-01T22:52:46.528Z,10.90
2018-05-01T22:55:15.982Z,12.10
2018-05-01T22:57:45.077Z,10.37
2018-05-01T23:00:14.158Z,9.73
2018-05-01T23:02:43.253Z,9.97
2018-05-01T23:05:12.344Z,8.20
2018-05-01T23:07:41.557Z,18.43
2018-05-01T23:10:10.637Z,10.47
2018-05-01T23:12:39.726Z,9.50
2018-05-01T23:15:08.849Z,13.70
2018-05-01T23:17:37.949Z,12.23
2018-05-01T23:20:07.117Z,17.77
2018-05-01T23:22:36.213Z,14.23
2018-05-01T23:25:06.318Z,10.13
2018-05-01T23:27:35.417Z,13.67
2018-05-01T23:30:04.509Z,23.77
2018-05-01T23:32:33.625Z,10.50
2018-05-01T23:35:02.714Z,13.50
2018-05-01T23:37:33.834Z,14.43
2018-05-01T23:40:02.964Z,14.13
2018-05-01T23:42:32.069Z,23.63
2018-05-01T23:45:01.176Z,16.10
2018-05-01T23:47:30.321Z,22.20
2018-05-01T23:49:59.520Z,17.83
2018-05-01T23:52:29.624Z,18.77
2018-05-01T23:54:58.750Z,22.87
2018-05-01T23:57:29.161Z,15.17
2018-05-01T23:59:58.256Z,22.60
